Montreal/Mirabel, Ontario

11:20 PM EST on January 23, 2017 (GMT -0500)
Montreal International (Mirabel) | | Change Station

Elev 269 ft 45.68 °N, 74.03 °W | Updated 20 minutes ago

Overcast
Overcast
25 °F
Feels Like 15 °F
N
9
Wind Variable Wind from NE
Gusts 21 mph

Today
High -- | Low -- °F
--% Chance of Precip.
Yesterday
High -- | Low -- °F
Precip. -- in
Pressure 29.98 in
Visibility 25.0 miles
Clouds Few 22000 ft
Overcast 25000 ft
Windchill 15 °F
Dew Point 18 °F
Humidity 74%
Rainfall 0.00 in
Snow Depth Not available.
7:26 AM 4:49 PM
Waning Crescent, 14% visible
METAR CYMX 240400Z 05008G18KT 020V100 25SM FEW220 OVC250 M04/M08 A2996 RMK CI2CI6 SLP151
Pressure 29.98 in
Visibility 25.0 miles
Clouds Few 22000 ft
Overcast 25000 ft
Windchill 15 °F
Dew Point 18 °F
Humidity 74%
Rainfall 0.00 in
Snow Depth Not available.
7:26 AM 4:49 PM
Waning Crescent, 14% visible
METAR CYMX 240400Z 05008G18KT 020V100 25SM FEW220 OVC250 M04/M08 A2996 RMK CI2CI6 SLP151

Get Your Daily Forecast Email!

Thanks for signing up!

Be on the lookout for a verification email in your inbox.

You'll start receiving the daily forecast at 8 AM.

×

10-Day Weather Forecast

Almanac

Astronomy

Jan. 23, 2017 Rise Set
Actual Time
Civil Twilight
Nautical Twilight
Astronomical Twilight
Moon
Length of Visible Light
Length of Day
Tomorrow will be .
, % of the Moon is Illuminated

Today's Extremes

Country Highs Country Lows

Community

WunderPhotos

Upload Photos

1,962,540 photos uploaded!

WunderBlog® & News

Nearby

Air Quality

  Air Quality AQ Index Pollutant
Not available.

Snow Depth

Station Depth Elevation

Earthquake Activity

City Distance Mag. Time & Date
Minimum magnitude displayed is 2.5.

Coastal Water Temperatures

Place Temperature

Stations

Nearby Weather Stations

Station Location Temp. Windchill Dew Point Humidity Wind Precip. Elev Updated Type
                   

Watches & Warnings

There are currently no watches in effect.